createdAt,value
2022-08-26T00:02:12.690Z,17.20
2022-08-26T00:04:41.074Z,17.20
2022-08-26T00:07:09.026Z,17.20
2022-08-26T00:09:40.106Z,17.30
2022-08-26T00:12:12.486Z,17.30
2022-08-26T00:14:40.977Z,17.30
2022-08-26T00:17:09.995Z,17.20
2022-08-26T00:19:37.936Z,17.10
2022-08-26T00:22:06.227Z,17.00
2022-08-26T00:24:34.673Z,17.00
2022-08-26T00:27:02.766Z,17.00
2022-08-26T00:29:32.064Z,17.00
2022-08-26T00:32:04.183Z,16.90
2022-08-26T00:34:32.603Z,16.80
2022-08-26T00:37:00.633Z,16.74
2022-08-26T00:39:28.480Z,16.70
2022-08-26T00:41:56.601Z,16.60
2022-08-26T00:44:24.517Z,16.60
2022-08-26T00:47:01.113Z,16.60
2022-08-26T00:49:39.763Z,16.60
2022-08-26T00:52:15.318Z,16.60
2022-08-26T00:55:02.813Z,16.60
2022-08-26T00:57:33.216Z,16.50
2022-08-26T01:00:11.346Z,16.40
2022-08-26T01:02:46.890Z,16.30
2022-08-26T01:05:17.965Z,16.20
2022-08-26T01:07:47.437Z,16.20
2022-08-26T01:10:23.136Z,16.20
2022-08-26T01:13:00.281Z,16.30
2022-08-26T01:15:35.841Z,16.30
2022-08-26T01:18:06.545Z,16.30
2022-08-26T01:21:19.123Z,16.18
2022-08-26T01:23:51.850Z,16.10
2022-08-26T01:26:39.302Z,16.10
2022-08-26T01:29:13.289Z,16.10
2022-08-26T01:31:51.301Z,16.10
2022-08-26T01:34:35.231Z,16.10
2022-08-26T01:37:19.842Z,16.10
2022-08-26T01:39:54.700Z,16.10
2022-08-26T01:42:25.529Z,16.08
2022-08-26T01:45:05.821Z,16.00
2022-08-26T01:47:36.647Z,15.96
2022-08-26T01:50:12.331Z,15.90
2022-08-26T01:52:49.960Z,15.90
2022-08-26T01:55:32.286Z,15.80
2022-08-26T01:58:07.510Z,15.80
2022-08-26T02:00:36.272Z,15.76
2022-08-26T02:03:17.193Z,15.70
2022-08-26T02:05:54.975Z,15.60
2022-08-26T02:08:35.934Z,15.60
2022-08-26T02:11:04.593Z,15.50
2022-08-26T02:13:37.428Z,15.50
2022-08-26T02:16:08.425Z,15.50
2022-08-26T02:18:41.243Z,15.50
2022-08-26T02:21:12.770Z,15.50
2022-08-26T02:23:40.735Z,15.50
2022-08-26T02:26:17.995Z,15.50
2022-08-26T02:28:58.619Z,15.50
2022-08-26T02:31:26.911Z,15.40
2022-08-26T02:33:54.817Z,15.30
2022-08-26T02:36:28.563Z,15.30
2022-08-26T02:38:56.831Z,15.30
2022-08-26T02:41:25.442Z,15.20
2022-08-26T02:43:53.505Z,15.20
2022-08-26T02:46:30.030Z,15.20
2022-08-26T02:48:59.624Z,15.20
2022-08-26T02:51:28.326Z,15.20
2022-08-26T02:53:56.962Z,15.10
2022-08-26T02:56:25.219Z,15.00
2022-08-26T02:58:53.388Z,15.00
2022-08-26T03:01:30.068Z,15.00
2022-08-26T03:04:01.189Z,15.00
2022-08-26T03:06:29.923Z,15.00
2022-08-26T03:08:58.090Z,14.90
2022-08-26T03:11:30.893Z,14.90
2022-08-26T03:14:03.419Z,14.90
2022-08-26T03:16:35.132Z,14.80
2022-08-26T03:19:06.425Z,14.70
2022-08-26T03:21:38.101Z,14.70
2022-08-26T03:24:06.425Z,14.78
2022-08-26T03:26:34.377Z,14.80
2022-08-26T03:29:25.348Z,14.74
2022-08-26T03:31:54.305Z,14.70
2022-08-26T03:34:22.653Z,14.70
2022-08-26T03:36:50.696Z,14.70
2022-08-26T03:39:18.616Z,14.70
2022-08-26T03:41:46.437Z,14.70
2022-08-26T03:44:14.894Z,14.70
2022-08-26T03:46:42.864Z,14.76
2022-08-26T03:49:12.017Z,14.80
2022-08-26T03:51:40.919Z,14.80
2022-08-26T03:54:10.008Z,14.80
2022-08-26T03:56:38.556Z,14.80
2022-08-26T03:59:08.365Z,14.70
2022-08-26T04:01:36.630Z,14.70
2022-08-26T04:04:06.436Z,14.74
2022-08-26T04:06:39.330Z,14.78
2022-08-26T04:09:13.353Z,14.80
2022-08-26T04:11:43.492Z,14.80
2022-08-26T04:14:20.128Z,14.80
2022-08-26T04:16:50.218Z,14.90
2022-08-26T04:19:21.250Z,14.90
2022-08-26T04:21:53.413Z,14.96
2022-08-26T04:24:24.677Z,15.00
2022-08-26T04:26:53.984Z,15.00
2022-08-26T04:29:25.922Z,15.10
2022-08-26T04:31:56.620Z,15.10
2022-08-26T04:34:28.704Z,15.10
2022-08-26T04:37:01.992Z,15.10
2022-08-26T04:39:30.045Z,15.10
2022-08-26T04:41:58.639Z,15.10
2022-08-26T04:44:30.060Z,15.10
2022-08-26T04:46:58.658Z,15.10
2022-08-26T04:49:28.088Z,15.18
2022-08-26T04:52:05.316Z,15.20
2022-08-26T04:54:33.119Z,15.20
2022-08-26T04:57:00.981Z,15.30
2022-08-26T04:59:29.139Z,15.30
2022-08-26T05:01:59.492Z,15.30
2022-08-26T05:04:28.059Z,15.38
2022-08-26T05:07:02.388Z,15.40
2022-08-26T05:09:30.989Z,15.40
2022-08-26T05:11:58.785Z,15.40
2022-08-26T05:14:26.645Z,15.40
2022-08-26T05:16:55.945Z,15.40
2022-08-26T05:19:24.887Z,15.40
2022-08-26T05:21:55.670Z,15.30
2022-08-26T05:24:23.564Z,15.30
2022-08-26T05:26:51.401Z,15.30
2022-08-26T05:29:19.449Z,15.40
2022-08-26T05:31:52.665Z,15.40
2022-08-26T05:34:25.733Z,15.40
2022-08-26T05:36:59.741Z,15.40
2022-08-26T05:39:27.452Z,15.50
2022-08-26T05:41:56.361Z,15.50
2022-08-26T05:44:24.782Z,15.60
2022-08-26T05:46:52.901Z,15.60
2022-08-26T05:49:21.073Z,15.60
2022-08-26T05:51:54.108Z,15.64
2022-08-26T05:54:23.493Z,15.70
2022-08-26T05:56:52.099Z,15.70
2022-08-26T05:59:24.297Z,15.80
2022-08-26T06:01:55.088Z,15.90
2022-08-26T06:04:28.541Z,15.90
2022-08-26T06:06:59.058Z,16.00
2022-08-26T06:09:27.331Z,16.06
2022-08-26T06:12:01.935Z,16.10
2022-08-26T06:14:31.581Z,16.20
2022-08-26T06:17:00.898Z,16.30
2022-08-26T06:19:33.038Z,16.30
2022-08-26T06:22:23.856Z,16.30
2022-08-26T06:25:11.116Z,16.40
2022-08-26T06:27:39.137Z,16.40
2022-08-26T06:30:09.939Z,16.50
2022-08-26T06:32:37.700Z,16.58
2022-08-26T06:35:06.944Z,16.70
2022-08-26T06:37:41.281Z,16.80
2022-08-26T06:40:10.101Z,16.88
2022-08-26T06:42:39.788Z,16.94
2022-08-26T06:45:08.928Z,17.00
2022-08-26T06:47:37.102Z,17.10
2022-08-26T06:50:05.698Z,17.20
2022-08-26T06:52:33.488Z,17.20
2022-08-26T06:55:03.609Z,17.30
2022-08-26T06:57:32.938Z,17.30
2022-08-26T07:00:10.913Z,17.32
2022-08-26T07:02:39.316Z,17.40
2022-08-26T07:05:08.318Z,17.50
2022-08-26T07:07:38.544Z,17.50
2022-08-26T07:10:08.737Z,17.60
2022-08-26T07:12:37.093Z,17.60
2022-08-26T07:15:05.804Z,17.64
2022-08-26T07:17:35.641Z,17.70
2022-08-26T07:20:08.356Z,17.80
2022-08-26T07:22:38.258Z,17.80
2022-08-26T07:25:09.414Z,17.80
2022-08-26T07:27:39.845Z,17.90
2022-08-26T07:30:09.072Z,17.90
2022-08-26T07:32:37.846Z,18.00
2022-08-26T07:35:06.540Z,18.10
2022-08-26T07:37:35.480Z,18.10
2022-08-26T07:40:09.680Z,18.20
2022-08-26T07:42:37.486Z,18.30
2022-08-26T07:45:07.704Z,18.32
2022-08-26T07:47:35.524Z,18.40
2022-08-26T07:50:03.932Z,18.40
2022-08-26T07:52:34.437Z,18.40
2022-08-26T07:55:06.182Z,18.50
2022-08-26T07:57:34.599Z,18.50
2022-08-26T08:00:12.188Z,18.50
2022-08-26T08:02:41.900Z,18.50
2022-08-26T08:05:11.671Z,18.50
2022-08-26T08:07:44.632Z,18.50
2022-08-26T08:10:21.046Z,18.54
2022-08-26T08:12:50.695Z,18.60
2022-08-26T08:15:25.086Z,18.60
2022-08-26T08:17:54.780Z,18.70
2022-08-26T08:20:26.709Z,18.70
2022-08-26T08:22:55.036Z,18.80
2022-08-26T08:25:23.572Z,18.90
2022-08-26T08:27:52.994Z,19.00
2022-08-26T08:30:23.021Z,19.10
2022-08-26T08:32:52.728Z,19.20
2022-08-26T08:35:23.441Z,19.30
2022-08-26T08:37:55.178Z,19.50
2022-08-26T08:40:27.877Z,19.62
2022-08-26T08:43:11.569Z,19.70
2022-08-26T08:45:57.717Z,19.70
2022-08-26T08:48:43.738Z,19.70
2022-08-26T08:52:29.068Z,19.76
2022-08-26T08:54:57.519Z,19.90
2022-08-26T08:58:02.500Z,19.90
2022-08-26T09:00:45.181Z,19.80
2022-08-26T09:03:51.667Z,19.82
2022-08-26T09:06:20.530Z,19.90
2022-08-26T09:08:52.145Z,20.10
2022-08-26T09:11:20.975Z,20.20
2022-08-26T09:13:53.758Z,20.30
2022-08-26T09:16:46.851Z,20.40
2022-08-26T09:19:43.082Z,20.50
2022-08-26T09:22:11.316Z,20.60
2022-08-26T09:24:41.768Z,20.70
2022-08-26T09:27:11.510Z,20.72
2022-08-26T09:29:45.692Z,20.80
2022-08-26T09:32:26.581Z,20.90
2022-08-26T09:35:00.579Z,20.90
2022-08-26T09:40:39.793Z,20.70
2022-08-26T09:43:26.068Z,20.60
2022-08-26T09:46:12.494Z,20.52
2022-08-26T09:48:43.406Z,20.50
2022-08-26T09:51:23.196Z,20.50
2022-08-26T09:54:05.753Z,20.50
2022-08-26T09:56:39.346Z,20.50
2022-08-26T09:59:12.248Z,20.60
2022-08-26T10:01:44.994Z,20.76
2022-08-26T10:04:23.336Z,21.00
2022-08-26T10:07:06.157Z,21.20
2022-08-26T10:09:43.444Z,21.38
2022-08-26T10:12:18.902Z,21.60
2022-08-26T10:14:55.265Z,21.88
2022-08-26T10:17:51.115Z,22.00
2022-08-26T10:20:26.545Z,22.20
2022-08-26T10:23:17.266Z,22.48
2022-08-26T10:25:57.000Z,22.70
2022-08-26T10:28:41.198Z,22.72
2022-08-26T10:31:38.155Z,22.80
2022-08-26T10:34:12.437Z,22.84
2022-08-26T10:37:10.771Z,23.00
2022-08-26T10:40:00.985Z,23.02
2022-08-26T10:42:42.748Z,23.18
2022-08-26T10:45:17.183Z,23.34
2022-08-26T10:48:02.865Z,23.58
2022-08-26T10:50:42.133Z,23.82
2022-08-26T10:53:34.126Z,23.90
2022-08-26T10:56:30.449Z,24.00
2022-08-26T10:59:18.791Z,24.00
2022-08-26T11:02:25.270Z,23.90
2022-08-26T11:05:05.497Z,23.82
2022-08-26T11:07:52.520Z,23.90
2022-08-26T11:10:23.252Z,23.90
2022-08-26T11:12:55.840Z,24.00
2022-08-26T11:15:25.073Z,24.20
2022-08-26T11:18:01.316Z,24.30
2022-08-26T11:20:47.117Z,24.40
2022-08-26T11:23:20.501Z,24.50
2022-08-26T11:26:35.395Z,24.50
2022-08-26T11:29:03.250Z,24.60
2022-08-26T11:31:31.772Z,24.60
2022-08-26T11:34:07.225Z,24.60
2022-08-26T11:36:47.894Z,24.70
2022-08-26T11:39:54.053Z,24.80
2022-08-26T11:42:54.557Z,24.80
2022-08-26T11:45:34.452Z,24.80
2022-08-26T11:48:21.744Z,24.66
2022-08-26T11:51:11.987Z,24.50
2022-08-26T11:53:47.412Z,24.30
2022-08-26T11:56:33.942Z,24.20
2022-08-26T11:59:09.786Z,24.10
2022-08-26T12:01:45.793Z,23.98
2022-08-26T12:04:49.114Z,23.90
2022-08-26T12:07:24.474Z,23.80
2022-08-26T12:10:02.726Z,23.74
2022-08-26T12:12:38.780Z,23.70
2022-08-26T12:15:12.253Z,23.60
2022-08-26T12:17:41.947Z,23.52
2022-08-26T12:20:48.473Z,23.40
2022-08-26T12:23:35.127Z,23.30
2022-08-26T12:26:24.795Z,23.10
2022-08-26T12:29:26.846Z,23.00
2022-08-26T12:32:33.045Z,22.80
2022-08-26T12:35:10.488Z,22.60
2022-08-26T12:37:44.365Z,22.40
2022-08-26T12:40:35.622Z,22.24
2022-08-26T12:43:07.313Z,22.10
2022-08-26T12:45:56.129Z,22.04
2022-08-26T12:48:38.852Z,22.00
2022-08-26T12:51:35.492Z,22.00
2022-08-26T12:54:06.997Z,21.90
2022-08-26T12:56:39.877Z,21.90
2022-08-26T12:59:26.121Z,21.90
2022-08-26T13:01:55.708Z,21.98
2022-08-26T13:04:43.255Z,22.00
2022-08-26T13:07:18.444Z,21.90
2022-08-26T13:09:46.574Z,21.98
2022-08-26T13:12:24.684Z,21.90
2022-08-26T13:14:53.389Z,21.90
2022-08-26T13:17:21.411Z,21.90
2022-08-26T13:19:49.345Z,21.80
2022-08-26T13:22:23.573Z,21.80
2022-08-26T13:24:57.032Z,21.90
2022-08-26T13:27:27.346Z,21.90
2022-08-26T13:29:57.689Z,22.00
2022-08-26T13:32:27.264Z,22.00
2022-08-26T13:34:57.716Z,22.06
2022-08-26T13:37:34.539Z,22.10
2022-08-26T13:40:07.931Z,22.20
2022-08-26T13:42:36.976Z,22.30
2022-08-26T13:45:18.040Z,22.36
2022-08-26T13:47:46.031Z,22.40
2022-08-26T13:50:13.910Z,22.40
2022-08-26T13:52:43.259Z,22.40
2022-08-26T13:55:11.152Z,22.40
2022-08-26T13:57:38.980Z,22.40
2022-08-26T14:00:11.132Z,22.50
2022-08-26T14:02:39.463Z,22.50
2022-08-26T14:05:08.233Z,22.60
2022-08-26T14:07:36.939Z,22.60
2022-08-26T14:10:06.363Z,22.70
2022-08-26T14:12:34.895Z,22.68
2022-08-26T14:15:02.777Z,22.68
2022-08-26T14:17:31.559Z,22.68
2022-08-26T14:20:00.296Z,22.60
2022-08-26T14:22:28.137Z,22.60
2022-08-26T14:24:56.691Z,22.60
2022-08-26T14:27:25.612Z,22.60
2022-08-26T14:29:54.475Z,22.60
2022-08-26T14:32:28.850Z,22.60
2022-08-26T14:34:56.766Z,22.60
2022-08-26T14:37:25.007Z,22.50
2022-08-26T14:39:53.754Z,22.50
2022-08-26T14:42:28.000Z,22.40
2022-08-26T14:45:03.466Z,22.14
2022-08-26T14:47:31.343Z,21.90
2022-08-26T14:49:59.612Z,21.82
2022-08-26T14:52:27.779Z,21.80
2022-08-26T14:54:55.880Z,21.62
2022-08-26T14:57:25.212Z,21.50
2022-08-26T14:59:53.292Z,21.50
2022-08-26T15:02:32.781Z,21.40
2022-08-26T15:05:04.159Z,21.30
2022-08-26T15:07:32.250Z,21.30
2022-08-26T15:10:00.785Z,21.20
2022-08-26T15:12:28.581Z,21.22
2022-08-26T15:14:56.449Z,21.20
2022-08-26T15:17:24.988Z,21.20
2022-08-26T15:19:52.931Z,21.20
2022-08-26T15:22:20.895Z,21.16
2022-08-26T15:24:51.778Z,21.18
2022-08-26T15:27:21.759Z,21.18
2022-08-26T15:29:49.935Z,21.10
2022-08-26T15:32:18.157Z,21.00
2022-08-26T15:34:46.014Z,21.00
2022-08-26T15:37:13.847Z,21.00
2022-08-26T15:39:42.013Z,21.00
2022-08-26T15:42:11.189Z,21.00
2022-08-26T15:44:44.826Z,20.90
2022-08-26T15:47:13.140Z,20.90
2022-08-26T15:49:41.495Z,20.82
2022-08-26T15:52:09.470Z,20.90
2022-08-26T15:54:37.403Z,20.90
2022-08-26T15:57:08.243Z,20.90
2022-08-26T15:59:39.491Z,20.90
2022-08-26T16:02:07.540Z,20.90
2022-08-26T16:04:35.682Z,20.90
2022-08-26T16:07:04.812Z,20.80
2022-08-26T16:09:32.580Z,20.80
2022-08-26T16:12:01.270Z,20.80
2022-08-26T16:14:31.291Z,20.70
2022-08-26T16:16:59.038Z,20.70
2022-08-26T16:19:26.912Z,20.70
2022-08-26T16:21:54.850Z,20.64
2022-08-26T16:24:27.186Z,20.60
2022-08-26T16:26:58.392Z,20.60
2022-08-26T16:29:26.701Z,20.60
2022-08-26T16:31:55.132Z,20.60
2022-08-26T16:34:24.505Z,20.60
2022-08-26T16:36:53.113Z,20.60
2022-08-26T16:39:20.967Z,20.60
2022-08-26T16:41:48.777Z,20.60
2022-08-26T16:44:16.708Z,20.52
2022-08-26T16:46:45.744Z,20.50
2022-08-26T16:49:14.081Z,20.50
2022-08-26T16:51:41.957Z,20.50
2022-08-26T16:54:10.409Z,20.50
2022-08-26T16:56:38.443Z,20.50
2022-08-26T16:59:11.523Z,20.50
2022-08-26T17:01:40.720Z,20.50
2022-08-26T17:04:08.892Z,20.40
2022-08-26T17:06:38.499Z,20.40
2022-08-26T17:09:06.411Z,20.20
2022-08-26T17:11:35.529Z,20.10
2022-08-26T17:14:04.928Z,20.00
2022-08-26T17:16:32.981Z,20.00
2022-08-26T17:19:02.419Z,20.00
2022-08-26T17:21:33.417Z,20.00
2022-08-26T17:24:03.954Z,20.00
2022-08-26T17:26:32.412Z,20.00
2022-08-26T17:29:00.564Z,19.98
2022-08-26T17:31:28.410Z,19.94
2022-08-26T17:33:56.852Z,19.92
2022-08-26T17:36:27.893Z,19.96
2022-08-26T17:38:59.432Z,19.90
2022-08-26T17:41:27.704Z,19.90
2022-08-26T17:43:57.223Z,19.90
2022-08-26T17:46:25.637Z,19.90
2022-08-26T17:48:53.861Z,19.90
2022-08-26T17:51:23.518Z,19.80
2022-08-26T17:53:52.783Z,19.80
2022-08-26T17:56:26.976Z,19.70
2022-08-26T17:58:58.059Z,19.70
2022-08-26T18:01:32.555Z,19.70
2022-08-26T18:04:01.056Z,19.70
2022-08-26T18:06:30.908Z,19.70
2022-08-26T18:09:00.860Z,19.70
2022-08-26T18:11:30.081Z,19.70
2022-08-26T18:13:59.073Z,19.68
2022-08-26T18:16:34.225Z,19.60
2022-08-26T18:19:02.181Z,19.60
2022-08-26T18:21:30.001Z,19.60
2022-08-26T18:24:00.306Z,19.60
2022-08-26T18:26:33.451Z,19.60
2022-08-26T18:29:02.416Z,19.60
2022-08-26T18:31:31.472Z,19.60
2022-08-26T18:34:02.137Z,19.60
2022-08-26T18:36:35.764Z,19.60
2022-08-26T18:39:05.435Z,19.56
2022-08-26T18:41:42.449Z,19.50
2022-08-26T18:44:13.850Z,19.50
2022-08-26T18:46:44.494Z,19.54
2022-08-26T18:49:15.561Z,19.54
2022-08-26T18:51:44.891Z,19.60
2022-08-26T18:54:13.221Z,19.60
2022-08-26T18:56:43.950Z,19.60
2022-08-26T18:59:13.938Z,19.50
2022-08-26T19:01:43.419Z,19.50
2022-08-26T19:04:15.744Z,19.50
2022-08-26T19:06:51.000Z,19.50
2022-08-26T19:09:21.059Z,19.50
2022-08-26T19:11:49.827Z,19.50
2022-08-26T19:14:19.656Z,19.50
2022-08-26T19:16:50.097Z,19.50
2022-08-26T19:19:24.087Z,19.40
2022-08-26T19:21:54.430Z,19.40
2022-08-26T19:24:27.280Z,19.40
2022-08-26T19:27:01.269Z,19.40
2022-08-26T19:29:34.281Z,19.40
2022-08-26T19:32:04.323Z,19.40
2022-08-26T19:34:32.090Z,19.40
2022-08-26T19:37:00.216Z,19.40
2022-08-26T19:39:28.782Z,19.40
2022-08-26T19:41:56.842Z,19.40
2022-08-26T19:44:43.281Z,19.30
2022-08-26T19:47:13.160Z,19.30
2022-08-26T19:49:41.321Z,19.30
2022-08-26T19:52:11.705Z,19.30
2022-08-26T19:54:40.954Z,19.30
2022-08-26T19:57:08.778Z,19.30
2022-08-26T19:59:36.597Z,19.30
2022-08-26T20:02:10.584Z,19.30
2022-08-26T20:04:40.065Z,19.34
2022-08-26T20:07:09.500Z,19.30
2022-08-26T20:09:38.519Z,19.30
2022-08-26T20:12:07.582Z,19.30
2022-08-26T20:14:35.791Z,19.22
2022-08-26T20:17:05.758Z,19.26
2022-08-26T20:19:54.746Z,19.30
2022-08-26T20:22:23.945Z,19.30
2022-08-26T20:24:53.224Z,19.34
2022-08-26T20:27:27.672Z,19.30
2022-08-26T20:30:10.892Z,19.30
2022-08-26T20:32:41.757Z,19.30
2022-08-26T20:35:14.541Z,19.30
2022-08-26T20:37:43.425Z,19.40
2022-08-26T20:40:14.213Z,19.40
2022-08-26T20:42:43.673Z,19.40
2022-08-26T20:45:11.616Z,19.40
2022-08-26T20:47:42.038Z,19.30
2022-08-26T20:50:10.213Z,19.30
2022-08-26T20:52:40.734Z,19.30
2022-08-26T20:55:11.500Z,19.28
2022-08-26T20:57:39.547Z,19.20
2022-08-26T21:00:08.441Z,19.20
2022-08-26T21:02:37.159Z,19.28
2022-08-26T21:05:07.127Z,19.30
2022-08-26T21:07:35.487Z,19.20
2022-08-26T21:10:04.629Z,19.10
2022-08-26T21:12:32.516Z,19.00
2022-08-26T21:15:00.705Z,18.90
2022-08-26T21:17:29.456Z,18.80
2022-08-26T21:19:57.512Z,18.80
2022-08-26T21:22:25.481Z,18.80
2022-08-26T21:24:53.961Z,18.80
2022-08-26T21:27:26.110Z,18.80
2022-08-26T21:29:55.213Z,18.80
2022-08-26T21:32:23.340Z,18.80
2022-08-26T21:34:58.053Z,18.72
2022-08-26T21:37:27.535Z,18.70
2022-08-26T21:39:58.244Z,18.80
2022-08-26T21:42:26.637Z,18.82
2022-08-26T21:44:54.694Z,18.80
2022-08-26T21:47:24.753Z,18.80
2022-08-26T21:49:53.852Z,18.80
2022-08-26T21:52:21.735Z,18.90
2022-08-26T21:54:50.207Z,18.80
2022-08-26T21:57:18.582Z,18.80
2022-08-26T21:59:49.419Z,18.80
2022-08-26T22:02:17.548Z,18.90
2022-08-26T22:04:49.024Z,18.80
2022-08-26T22:07:19.880Z,18.80
2022-08-26T22:09:48.673Z,18.70
2022-08-26T22:12:18.531Z,18.70
2022-08-26T22:14:47.137Z,18.60
2022-08-26T22:17:16.040Z,18.50
2022-08-26T22:19:46.248Z,18.50
2022-08-26T22:22:15.353Z,18.50
2022-08-26T22:24:43.829Z,18.50
2022-08-26T22:27:13.773Z,18.50
2022-08-26T22:29:42.600Z,18.50
2022-08-26T22:32:11.355Z,18.40
2022-08-26T22:34:42.095Z,18.40
2022-08-26T22:37:11.017Z,18.42
2022-08-26T22:39:38.954Z,18.50
2022-08-26T22:42:07.702Z,18.50
2022-08-26T22:44:37.466Z,18.50
2022-08-26T22:47:06.550Z,18.50
2022-08-26T22:49:34.542Z,18.50
2022-08-26T22:52:03.208Z,18.50
2022-08-26T22:54:31.177Z,18.40
2022-08-26T22:56:59.155Z,18.38
2022-08-26T22:59:27.251Z,18.38
2022-08-26T23:01:56.109Z,18.30
2022-08-26T23:04:24.432Z,18.38
2022-08-26T23:06:52.316Z,18.40
2022-08-26T23:09:20.355Z,18.30
2022-08-26T23:11:49.859Z,18.30
2022-08-26T23:14:19.141Z,18.30
2022-08-26T23:16:47.896Z,18.30
2022-08-26T23:19:20.510Z,18.30
2022-08-26T23:21:50.647Z,18.30
2022-08-26T23:24:18.802Z,18.30
2022-08-26T23:26:48.920Z,18.30
2022-08-26T23:29:16.772Z,18.20
2022-08-26T23:31:45.558Z,18.20
2022-08-26T23:34:33.248Z,18.20
2022-08-26T23:37:06.239Z,18.22
2022-08-26T23:39:37.366Z,18.20
2022-08-26T23:42:06.704Z,18.20
2022-08-26T23:44:35.061Z,18.20
2022-08-26T23:47:03.507Z,18.20
2022-08-26T23:49:32.113Z,18.20
2022-08-26T23:52:19.745Z,18.20
2022-08-26T23:54:49.018Z,18.10
2022-08-26T23:57:19.751Z,18.10
2022-08-26T23:59:48.678Z,18.10
